Terminal Aerodrome Forecast
Issued by NWS

Home | Current Version | Previous Version | Text Only | Print | Product List | Glossary Off
Versions: 1 2 3 4 5 6 7 8 9 10 11 12 13 14 15 16 17

209
FTUS43 KGRB 221720
TAFAUW
TAF
KAUW 221720Z 2218/2318 23006KT P6SM VCSH SCT025 BKN050
      TEMPO 2218/2222 2SM TSRA BKN020CB
     FM222200 32007KT P6SM SHRA OVC035
      TEMPO 2222/2301 4SM TSRA OVC015CB
     FM230100 34006KT 4SM SHRA BKN050
     FM230400 30004KT P6SM BKN090
     FM231600 27012G21KT P6SM SCT040=

USA.gov is the U.S. government's official web portal to all federal, state and local government web resources and services.